Time;durP1;ratioP1;P1;durP2;ratioP2;P2;SDS_P1;SDS_P2;PMS_P1;PMS_P2;Temp;Humidity;BMP_temperature;BMP_pressure;BME280_temperature;BME280_humidity;BME280_pressure;Samples;Min_cycle;Max_cycle;Signal;HPM_P1;HPM_P2
2023/04/11 00:02:05;;;;;;;161.25;100.28;;;;;;;;;;4996128;28;20422;-79
2023/04/11 00:04:32;;;;;;;209.18;128.95;;;;;;;;;;4998265;28;20117;-78
2023/04/11 00:06:58;;;;;;;222.27;130.70;;;;;;;;;;4991016;28;20109;-77
2023/04/11 00:09:23;;;;;;;124.60;76.93;;;;;;;;;;4992438;28;20935;-79
2023/04/11 00:11:48;;;;;;;45.08;33.80;;;;;;;;;;4997073;28;20034;-78
2023/04/11 00:14:14;;;;;;;42.97;36.28;;;;;;;;;;4996004;28;20092;-78
2023/04/11 00:16:40;;;;;;;84.00;70.13;;;;;;;;;;4996029;28;20129;-79
2023/04/11 00:19:06;;;;;;;60.58;53.40;;;;;;;;;;4994638;28;20025;-80
2023/04/11 00:21:31;;;;;;;53.30;47.50;;;;;;;;;;4992928;28;20034;-80
2023/04/11 00:23:56;;;;;;;31.13;27.83;;;;;;;;;;4984807;28;20611;-78
2023/04/11 00:26:22;;;;;;;71.72;57.53;;;;;;;;;;4994992;28;20050;-78
2023/04/11 00:28:47;;;;;;;84.72;67.78;;;;;;;;;;4997712;28;20034;-78
2023/04/11 00:31:13;;;;;;;178.45;122.65;;;;;;;;;;4993222;28;20109;-79
2023/04/11 00:33:38;;;;;;;40.95;34.40;;;;;;;;;;4987340;28;20030;-76
2023/04/11 00:36:04;;;;;;;24.45;21.95;;;;;;;;;;4986882;28;20037;-78
2023/04/11 00:38:29;;;;;;;26.13;23.55;;;;;;;;;;4983005;28;20014;-77
2023/04/11 00:40:54;;;;;;;25.98;23.38;;;;;;;;;;4994206;28;20041;-77
2023/04/11 00:43:20;;;;;;;54.15;46.00;;;;;;;;;;4989923;28;20040;-78
2023/04/11 00:45:45;;;;;;;33.25;29.75;;;;;;;;;;4982528;28;20449;-78
2023/04/11 00:48:11;;;;;;;34.25;30.83;;;;;;;;;;4983813;28;20133;-79
2023/04/11 00:50:40;;;;;;;34.58;31.00;;;;;;;;;;4979549;28;20464;-78
2023/04/11 00:53:07;;;;;;;51.28;44.10;;;;;;;;;;5006018;28;20056;-78
2023/04/11 00:55:33;;;;;;;49.50;42.90;;;;;;;;;;4985600;28;20034;-79
2023/04/11 00:57:58;;;;;;;44.95;40.13;;;;;;;;;;4986936;28;20045;-78
2023/04/11 01:00:24;;;;;;;40.85;36.55;;;;;;;;;;4992207;28;20029;-78
2023/04/11 01:02:49;;;;;;;37.03;33.15;;;;;;;;;;4996296;28;20097;-77
2023/04/11 01:05:15;;;;;;;36.97;32.97;;;;;;;;;;4994532;28;20112;-77
2023/04/11 01:07:42;;;;;;;34.42;30.65;;;;;;;;;;4996035;28;20038;-78
2023/04/11 01:10:08;;;;;;;29.30;26.17;;;;;;;;;;4988005;28;20100;-79
2023/04/11 01:12:34;;;;;;;29.75;26.70;;;;;;;;;;4990399;28;20421;-77
2023/04/11 01:14:59;;;;;;;38.25;34.35;;;;;;;;;;4994837;28;20044;-79
2023/04/11 01:17:25;;;;;;;37.95;33.95;;;;;;;;;;4996249;28;20080;-80
2023/04/11 01:19:51;;;;;;;28.85;25.90;;;;;;;;;;4995859;28;20168;-79
2023/04/11 01:22:19;;;;;;;32.20;28.92;;;;;;;;;;4997939;28;20092;-77
2023/04/11 01:24:44;;;;;;;44.65;37.92;;;;;;;;;;5000921;28;20025;-77
2023/04/11 01:27:09;;;;;;;37.65;32.67;;;;;;;;;;4993481;28;20029;-78
2023/04/11 01:29:35;;;;;;;31.92;28.63;;;;;;;;;;4990239;28;21107;-77
2023/04/11 01:32:00;;;;;;;34.28;30.77;;;;;;;;;;4994588;28;20033;-79
2023/04/11 01:34:27;;;;;;;30.30;27.15;;;;;;;;;;5016551;28;20046;-78
2023/04/11 01:36:52;;;;;;;31.42;27.60;;;;;;;;;;5001761;28;20030;-78
2023/04/11 01:39:17;;;;;;;30.90;27.60;;;;;;;;;;4998018;28;20034;-78
2023/04/11 01:41:44;;;;;;;35.95;30.75;;;;;;;;;;5000499;28;20026;-77
2023/04/11 01:44:10;;;;;;;39.08;34.35;;;;;;;;;;5000584;28;20939;-78
2023/04/11 01:46:35;;;;;;;41.92;34.95;;;;;;;;;;4998480;28;20062;-77
2023/04/11 01:49:01;;;;;;;36.35;32.10;;;;;;;;;;4999353;28;20034;-77
2023/04/11 01:51:27;;;;;;;35.72;31.02;;;;;;;;;;4987282;28;20029;-78
2023/04/11 01:53:52;;;;;;;40.75;34.45;;;;;;;;;;4994760;28;20044;-79
2023/04/11 01:56:18;;;;;;;45.05;38.63;;;;;;;;;;4998613;28;20507;-78
2023/04/11 01:58:43;;;;;;;46.72;40.70;;;;;;;;;;4997057;28;20446;-78
2023/04/11 02:01:08;;;;;;;43.13;38.58;;;;;;;;;;4999009;28;20037;-77
2023/04/11 02:03:35;;;;;;;41.05;34.83;;;;;;;;;;4998723;28;20501;-77
2023/04/11 02:06:00;;;;;;;38.60;34.45;;;;;;;;;;4995140;28;20034;-77
2023/04/11 02:08:26;;;;;;;44.50;39.53;;;;;;;;;;4992146;28;20022;-77
2023/04/11 02:10:51;;;;;;;39.67;34.97;;;;;;;;;;4999123;28;20048;-78
2023/04/11 02:13:16;;;;;;;39.72;34.45;;;;;;;;;;5000920;28;20022;-77
2023/04/11 02:15:42;;;;;;;34.92;31.23;;;;;;;;;;4994771;28;20033;-77
2023/04/11 02:18:08;;;;;;;34.72;30.98;;;;;;;;;;4997261;28;20097;-76
2023/04/11 02:20:33;;;;;;;37.03;31.23;;;;;;;;;;4997683;28;20026;-78
2023/04/11 02:23:03;;;;;;;38.33;34.33;;;;;;;;;;4998044;28;20028;-77
2023/04/11 02:25:28;;;;;;;40.33;35.92;;;;;;;;;;5013354;28;20022;-78
2023/04/11 02:27:53;;;;;;;36.92;32.90;;;;;;;;;;4999650;28;20036;-77
2023/04/11 02:30:18;;;;;;;41.30;37.03;;;;;;;;;;4999170;28;20034;-77
2023/04/11 02:32:45;;;;;;;38.63;34.72;;;;;;;;;;4987970;28;20025;-78
2023/04/11 02:35:10;;;;;;;35.72;32.13;;;;;;;;;;4997076;28;20026;-77
2023/04/11 02:37:36;;;;;;;36.03;32.22;;;;;;;;;;4987676;28;20037;-77
2023/04/11 02:40:03;;;;;;;38.75;34.63;;;;;;;;;;4997512;28;20049;-77
2023/04/11 02:42:28;;;;;;;33.47;29.88;;;;;;;;;;4998163;28;20017;-76
2023/04/11 02:44:54;;;;;;;38.05;33.97;;;;;;;;;;4994854;28;20327;-76
2023/04/11 02:47:20;;;;;;;38.90;34.70;;;;;;;;;;4994784;28;20050;-76
2023/04/11 02:49:45;;;;;;;36.85;32.88;;;;;;;;;;4997711;28;20145;-75
2023/04/11 02:52:10;;;;;;;31.00;27.92;;;;;;;;;;4993706;28;20385;-76
2023/04/11 02:54:35;;;;;;;29.65;26.60;;;;;;;;;;5013140;28;20026;-76
2023/04/11 02:57:01;;;;;;;68.63;48.88;;;;;;;;;;4993342;28;20032;-75
2023/04/11 02:59:26;;;;;;;143.98;106.75;;;;;;;;;;4992668;28;20022;-75
2023/04/11 03:01:58;;;;;;;105.85;82.70;;;;;;;;;;4995862;28;20038;-78
2023/04/11 03:04:23;;;;;;;248.88;192.70;;;;;;;;;;5013309;28;20045;-77
2023/04/11 03:06:48;;;;;;;77.00;62.58;;;;;;;;;;4998404;28;20025;-77
2023/04/11 03:09:14;;;;;;;53.60;45.83;;;;;;;;;;4998952;28;20034;-77
2023/04/11 03:11:39;;;;;;;66.07;55.38;;;;;;;;;;4998219;28;20038;-78
2023/04/11 03:14:05;;;;;;;112.78;94.50;;;;;;;;;;4995468;28;20114;-77
2023/04/11 03:16:30;;;;;;;134.75;109.82;;;;;;;;;;4991609;28;20033;-77
2023/04/11 03:18:57;;;;;;;131.65;110.45;;;;;;;;;;4993672;28;20034;-77
2023/04/11 03:21:22;;;;;;;119.10;98.93;;;;;;;;;;4997518;28;20030;-78
2023/04/11 03:23:48;;;;;;;89.05;76.13;;;;;;;;;;4994168;28;20434;-77
2023/04/11 03:26:14;;;;;;;53.63;47.40;;;;;;;;;;4998930;28;20167;-79
2023/04/11 03:28:39;;;;;;;68.65;57.80;;;;;;;;;;4997362;28;20403;-79
2023/04/11 03:31:05;;;;;;;44.85;40.15;;;;;;;;;;4994728;28;20034;-78
2023/04/11 03:33:30;;;;;;;42.95;38.25;;;;;;;;;;4997263;28;20323;-79
2023/04/11 03:35:55;;;;;;;130.13;98.50;;;;;;;;;;4997219;28;20560;-78
2023/04/11 03:38:21;;;;;;;59.17;52.13;;;;;;;;;;4999252;28;20398;-77
2023/04/11 03:40:46;;;;;;;44.67;39.80;;;;;;;;;;4991024;28;20034;-77
2023/04/11 03:43:12;;;;;;;37.22;33.33;;;;;;;;;;4985129;28;20022;-78
2023/04/11 03:45:37;;;;;;;47.63;42.45;;;;;;;;;;4996560;28;20037;-78
2023/04/11 03:48:02;;;;;;;44.92;40.28;;;;;;;;;;4995586;28;20137;-77
2023/04/11 03:50:28;;;;;;;42.58;35.60;;;;;;;;;;4982938;28;20026;-76
2023/04/11 03:52:53;;;;;;;38.15;34.03;;;;;;;;;;4980717;28;20361;-77
2023/04/11 03:55:19;;;;;;;53.83;48.53;;;;;;;;;;4975080;28;20061;-77
2023/04/11 03:57:45;;;;;;;37.20;33.40;;;;;;;;;;4972163;28;20018;-76
2023/04/11 04:00:10;;;;;;;29.33;26.33;;;;;;;;;;4974627;28;20058;-77
2023/04/11 04:02:36;;;;;;;27.58;24.63;;;;;;;;;;4986453;28;20025;-76
2023/04/11 04:05:01;;;;;;;27.60;24.67;;;;;;;;;;4992203;28;20033;-78
2023/04/11 04:07:27;;;;;;;26.92;24.30;;;;;;;;;;4997687;28;20061;-78
2023/04/11 04:09:52;;;;;;;27.13;24.45;;;;;;;;;;4992830;28;20062;-78
2023/04/11 04:12:19;;;;;;;26.08;23.40;;;;;;;;;;4994634;28;20030;-77
2023/04/11 04:14:45;;;;;;;27.42;24.63;;;;;;;;;;4986250;28;20029;-78
2023/04/11 04:17:10;;;;;;;27.15;24.40;;;;;;;;;;4986534;28;20038;-78
2023/04/11 04:19:36;;;;;;;32.50;28.30;;;;;;;;;;4984898;28;20018;-76
2023/04/11 04:22:01;;;;;;;28.00;25.10;;;;;;;;;;4993379;28;20370;-77
2023/04/11 04:24:26;;;;;;;31.50;27.35;;;;;;;;;;4993652;28;20196;-77
2023/04/11 04:26:52;;;;;;;29.67;26.58;;;;;;;;;;4995260;28;20192;-77
2023/04/11 04:29:17;;;;;;;28.17;25.17;;;;;;;;;;4978558;28;20105;-77
2023/04/11 04:31:43;;;;;;;32.78;29.45;;;;;;;;;;4976344;28;20996;-78
2023/04/11 04:34:08;;;;;;;33.97;30.35;;;;;;;;;;4988549;28;20382;-77
2023/04/11 04:36:45;;;;;;;34.90;31.30;;;;;;;;;;4995566;28;20109;-77
2023/04/11 04:39:17;;;;;;;34.13;30.73;;;;;;;;;;4980820;28;20073;-77
2023/04/11 04:41:47;;;;;;;32.85;29.65;;;;;;;;;;4983740;28;20481;-77
2023/04/11 04:44:14;;;;;;;;;;;;;;;;;;4981611;28;20096;-77
2023/04/11 04:46:39;;;;;;;43.72;35.50;;;;;;;;;;4985959;28;20025;-78
2023/04/11 04:49:05;;;;;;;32.17;28.67;;;;;;;;;;4995534;28;20461;-78
2023/04/11 04:51:31;;;;;;;229.27;188.20;;;;;;;;;;4992813;28;20105;-78
2023/04/11 04:53:56;;;;;;;45.83;40.58;;;;;;;;;;4996996;28;20038;-77
2023/04/11 04:56:21;;;;;;;167.05;102.53;;;;;;;;;;4993128;28;20029;-77
2023/04/11 04:58:47;;;;;;;265.13;135.85;;;;;;;;;;4993461;28;20022;-77
2023/04/11 05:01:12;;;;;;;87.63;57.03;;;;;;;;;;4994325;28;20109;-77
2023/04/11 05:03:37;;;;;;;41.20;35.75;;;;;;;;;;4991834;28;20097;-78
2023/04/11 05:06:03;;;;;;;36.15;32.20;;;;;;;;;;4994519;28;20030;-78
2023/04/11 05:08:28;;;;;;;34.25;29.95;;;;;;;;;;4993691;28;20109;-78
2023/04/11 05:10:53;;;;;;;32.70;29.17;;;;;;;;;;4992287;28;20047;-78
2023/04/11 05:13:19;;;;;;;38.25;34.05;;;;;;;;;;4987570;28;20073;-77
2023/04/11 05:15:50;;;;;;;44.17;37.85;;;;;;;;;;4980915;28;20405;-77
2023/04/11 05:18:16;;;;;;;43.97;38.75;;;;;;;;;;4982115;28;20049;-75
2023/04/11 05:20:41;;;;;;;47.58;38.83;;;;;;;;;;4990823;28;20062;-76
2023/04/11 05:23:06;;;;;;;92.47;64.65;;;;;;;;;;4993749;28;20021;-77
2023/04/11 05:25:32;;;;;;;146.70;96.30;;;;;;;;;;4989229;28;20342;-78
2023/04/11 05:27:57;;;;;;;136.35;90.18;;;;;;;;;;4980918;28;20041;-73
2023/04/11 05:30:22;;;;;;;264.98;159.38;;;;;;;;;;4982734;28;20053;-76
2023/04/11 05:32:47;;;;;;;220.30;138.98;;;;;;;;;;4986452;28;20030;-76
2023/04/11 05:35:13;;;;;;;514.35;265.23;;;;;;;;;;4983228;28;20038;-76
2023/04/11 05:37:39;;;;;;;263.60;113.85;;;;;;;;;;4994370;28;20064;-77
2023/04/11 05:40:07;;;;;;;469.75;201.27;;;;;;;;;;4997356;28;20030;-76
2023/04/11 05:42:32;;;;;;;490.95;257.10;;;;;;;;;;4996493;28;20449;-77
2023/04/11 05:44:57;;;;;;;494.73;242.88;;;;;;;;;;4997642;28;20018;-76
2023/04/11 05:47:23;;;;;;;403.25;218.32;;;;;;;;;;4997844;28;20057;-77
2023/04/11 05:49:48;;;;;;;288.90;161.38;;;;;;;;;;4996109;28;20116;-78
2023/04/11 05:52:13;;;;;;;548.08;267.17;;;;;;;;;;4992414;28;20038;-78
2023/04/11 05:54:39;;;;;;;514.65;246.80;;;;;;;;;;4994001;28;20029;-78
2023/04/11 05:57:06;;;;;;;304.83;161.52;;;;;;;;;;4995408;28;20049;-78
2023/04/11 05:59:31;;;;;;;231.65;167.35;;;;;;;;;;4991736;28;20474;-77
2023/04/11 06:02:00;;;;;;;84.80;68.68;;;;;;;;;;4994677;28;20033;-78
2023/04/11 06:04:25;;;;;;;48.47;42.60;;;;;;;;;;4993828;28;20033;-78
2023/04/11 06:06:51;;;;;;;36.70;32.70;;;;;;;;;;4989415;28;20345;-77
2023/04/11 06:09:17;;;;;;;58.35;47.42;;;;;;;;;;4999560;28;20159;-75
2023/04/11 06:11:42;;;;;;;40.95;34.58;;;;;;;;;;4995227;28;20112;-75
2023/04/11 06:14:08;;;;;;;38.13;32.80;;;;;;;;;;4997953;28;20026;-76
2023/04/11 06:16:35;;;;;;;31.33;28.05;;;;;;;;;;4998097;28;20026;-78
2023/04/11 06:19:00;;;;;;;30.15;26.98;;;;;;;;;;4997997;28;20336;-75
2023/04/11 06:21:26;;;;;;;35.85;32.15;;;;;;;;;;4997307;28;20029;-76
2023/04/11 06:23:51;;;;;;;38.17;34.15;;;;;;;;;;4998125;28;20018;-75
2023/04/11 06:26:17;;;;;;;27.00;24.20;;;;;;;;;;4998023;28;20041;-74
2023/04/11 06:28:42;;;;;;;33.97;28.67;;;;;;;;;;4996261;28;20025;-76
2023/04/11 06:31:08;;;;;;;34.88;29.80;;;;;;;;;;4997864;28;20030;-78
2023/04/11 06:33:33;;;;;;;48.72;37.60;;;;;;;;;;4999543;28;20084;-77
2023/04/11 06:35:58;;;;;;;36.75;31.88;;;;;;;;;;4999213;28;20037;-79
2023/04/11 06:38:23;;;;;;;58.60;41.95;;;;;;;;;;4988783;28;20055;-78
2023/04/11 06:40:50;;;;;;;322.02;139.70;;;;;;;;;;4995103;28;20056;-78
2023/04/11 06:43:15;;;;;;;130.05;67.65;;;;;;;;;;5000271;28;20029;-76
2023/04/11 06:45:40;;;;;;;118.57;63.75;;;;;;;;;;4996064;28;20465;-75
2023/04/11 06:48:06;;;;;;;70.68;43.92;;;;;;;;;;4994041;28;20449;-77
2023/04/11 06:50:31;;;;;;;34.25;29.13;;;;;;;;;;4998728;28;20029;-76
2023/04/11 06:52:57;;;;;;;43.78;34.10;;;;;;;;;;4997948;28;20066;-76
2023/04/11 06:55:22;;;;;;;51.22;39.03;;;;;;;;;;4989052;28;20037;-77
2023/04/11 06:57:47;;;;;;;269.17;146.90;;;;;;;;;;4989457;28;20033;-77
2023/04/11 07:00:15;;;;;;;115.22;82.72;;;;;;;;;;4997488;28;20380;-76
2023/04/11 07:02:40;;;;;;;42.25;37.75;;;;;;;;;;4993723;28;20437;-75
2023/04/11 07:05:08;;;;;;;54.15;40.92;;;;;;;;;;4996811;28;20061;-75
2023/04/11 07:07:33;;;;;;;133.18;75.85;;;;;;;;;;4997230;28;20057;-76
2023/04/11 07:09:58;;;;;;;65.55;51.45;;;;;;;;;;4999166;28;20091;-78
2023/04/11 07:12:24;;;;;;;62.85;48.53;;;;;;;;;;4997203;28;20076;-76
2023/04/11 07:14:49;;;;;;;43.38;38.67;;;;;;;;;;4992488;28;20014;-77
2023/04/11 07:17:14;;;;;;;44.30;37.55;;;;;;;;;;4996621;28;20338;-75
2023/04/11 07:19:39;;;;;;;37.53;33.45;;;;;;;;;;4996660;28;20125;-75
2023/04/11 07:22:05;;;;;;;42.92;38.42;;;;;;;;;;4997937;28;20045;-75
2023/04/11 07:24:30;;;;;;;34.17;30.67;;;;;;;;;;4996539;28;20330;-75
2023/04/11 07:26:57;;;;;;;31.45;27.58;;;;;;;;;;4996565;28;20333;-75
2023/04/11 07:29:23;;;;;;;31.63;28.25;;;;;;;;;;4998400;28;20065;-75
2023/04/11 07:31:49;;;;;;;28.75;25.75;;;;;;;;;;4994423;28;20065;-75
2023/04/11 07:34:14;;;;;;;28.45;25.42;;;;;;;;;;4997669;28;20026;-76
2023/04/11 07:36:40;;;;;;;27.38;24.23;;;;;;;;;;4997752;28;20029;-76
2023/04/11 07:39:08;;;;;;;32.67;26.73;;;;;;;;;;4997014;28;20026;-76
2023/04/11 07:41:34;;;;;;;30.45;27.25;;;;;;;;;;4992919;28;20042;-76
2023/04/11 07:44:00;;;;;;;61.72;47.63;;;;;;;;;;4988317;28;20021;-75
2023/04/11 07:46:25;;;;;;;33.55;29.92;;;;;;;;;;4997034;28;20116;-74
2023/04/11 07:48:50;;;;;;;36.58;30.92;;;;;;;;;;4994905;28;20087;-75
2023/04/11 07:51:16;;;;;;;25.60;22.90;;;;;;;;;;4995488;28;20037;-75
2023/04/11 07:53:41;;;;;;;25.98;23.30;;;;;;;;;;4990452;28;20043;-75
2023/04/11 07:56:06;;;;;;;26.48;23.63;;;;;;;;;;4994114;28;20021;-76
2023/04/11 07:58:32;;;;;;;34.53;26.17;;;;;;;;;;5005659;28;20030;-76
2023/04/11 08:00:57;;;;;;;30.80;26.77;;;;;;;;;;4983792;28;20457;-77
2023/04/11 08:03:23;;;;;;;28.00;25.05;;;;;;;;;;4982974;28;20038;-78
2023/04/11 08:05:48;;;;;;;38.03;33.05;;;;;;;;;;4982010;28;20033;-75
2023/04/11 08:08:13;;;;;;;32.72;28.73;;;;;;;;;;4996520;28;20022;-75
2023/04/11 08:10:39;;;;;;;36.65;32.55;;;;;;;;;;4986450;28;20029;-76
2023/04/11 08:13:04;;;;;;;32.20;28.20;;;;;;;;;;4995532;28;20030;-74
2023/04/11 08:15:30;;;;;;;37.25;31.17;;;;;;;;;;4998197;28;20448;-76
2023/04/11 08:17:55;;;;;;;36.47;30.58;;;;;;;;;;4994353;28;20022;-77
2023/04/11 08:20:22;;;;;;;36.42;30.90;;;;;;;;;;4996371;28;20030;-76
2023/04/11 08:22:47;;;;;;;41.88;34.42;;;;;;;;;;4981896;28;20057;-75
2023/04/11 08:25:13;;;;;;;39.45;31.42;;;;;;;;;;4993221;28;20068;-74
2023/04/11 08:27:39;;;;;;;25.33;22.63;;;;;;;;;;4996727;28;20018;-74
2023/04/11 08:30:07;;;;;;;28.23;25.25;;;;;;;;;;4989531;28;20037;-74
2023/04/11 08:32:32;;;;;;;23.13;20.63;;;;;;;;;;4976825;28;20739;-73
2023/04/11 08:34:58;;;;;;;23.90;21.30;;;;;;;;;;4983096;28;20531;-73
2023/04/11 08:37:23;;;;;;;29.45;25.92;;;;;;;;;;4982625;28;20062;-71
2023/04/11 08:39:48;;;;;;;25.05;21.15;;;;;;;;;;4983121;28;20450;-72
2023/04/11 08:42:20;;;;;;;32.88;28.95;;;;;;;;;;4982077;28;20077;-73
2023/04/11 08:44:49;;;;;;;28.48;25.67;;;;;;;;;;4984644;28;20322;-74
2023/04/11 08:47:14;;;;;;;23.93;21.30;;;;;;;;;;4988415;28;20045;-74
2023/04/11 08:49:40;;;;;;;32.53;26.20;;;;;;;;;;4994343;28;20560;-73
2023/04/11 08:52:06;;;;;;;26.40;22.20;;;;;;;;;;4985053;28;20049;-74
2023/04/11 08:54:31;;;;;;;31.80;27.92;;;;;;;;;;4992811;28;20085;-75
2023/04/11 08:56:56;;;;;;;24.85;22.30;;;;;;;;;;4994414;28;20152;-73
2023/04/11 08:59:21;;;;;;;25.27;22.58;;;;;;;;;;4994086;28;20056;-74
2023/04/11 09:01:48;;;;;;;21.08;18.15;;;;;;;;;;4995439;28;20028;-76
2023/04/11 09:04:14;;;;;;;20.13;18.02;;;;;;;;;;4987005;28;20042;-76
2023/04/11 09:06:41;;;;;;;23.02;20.20;;;;;;;;;;4985874;28;20026;-74
2023/04/11 09:09:09;;;;;;;26.27;23.67;;;;;;;;;;4984279;28;20068;-77
2023/04/11 09:11:50;;;;;;;29.33;25.17;;;;;;;;;;4983689;28;20084;-76
2023/04/11 09:14:16;;;;;;;25.40;22.67;;;;;;;;;;5002143;28;20464;-76
2023/04/11 09:17:01;;;;;;;24.05;21.65;;;;;;;;;;4994112;28;20137;-76
2023/04/11 09:19:31;;;;;;;28.73;25.83;;;;;;;;;;4988165;28;20026;-74
2023/04/11 09:22:00;;;;;;;24.23;21.70;;;;;;;;;;4986812;28;20103;-73
2023/04/11 09:24:29;;;;;;;18.65;16.75;;;;;;;;;;4985332;28;20034;-73
2023/04/11 09:27:07;;;;;;;17.63;13.90;;;;;;;;;;4983907;28;20030;-73
2023/04/11 09:29:40;;;;;;;21.42;19.20;;;;;;;;;;4979321;28;20036;-74
2023/04/11 09:32:06;;;;;;;17.20;15.40;;;;;;;;;;4982579;28;20029;-73
2023/04/11 09:34:32;;;;;;;22.67;20.48;;;;;;;;;;4982229;28;20022;-73
2023/04/11 09:36:58;;;;;;;21.35;19.23;;;;;;;;;;4982122;28;20117;-72
2023/04/11 09:39:27;;;;;;;19.85;17.63;;;;;;;;;;4983070;28;20121;-73
2023/04/11 09:41:52;;;;;;;19.77;17.88;;;;;;;;;;4984643;28;20030;-75
2023/04/11 09:44:18;;;;;;;15.20;13.75;;;;;;;;;;4984948;28;20036;-73
2023/04/11 09:46:56;;;;;;;17.00;15.20;;;;;;;;;;4981010;28;20111;-74
2023/04/11 09:49:22;;;;;;;15.52;13.98;;;;;;;;;;4983111;28;20033;-75
2023/04/11 09:51:47;;;;;;;14.43;11.90;;;;;;;;;;4985865;28;20034;-75
2023/04/11 09:54:14;;;;;;;11.40;10.23;;;;;;;;;;4986542;28;20441;-76
2023/04/11 09:56:40;;;;;;;19.85;17.90;;;;;;;;;;4992074;28;20036;-76
2023/04/11 09:59:06;;;;;;;16.45;14.90;;;;;;;;;;4994627;28;20017;-77
2023/04/11 10:01:32;;;;;;;13.00;11.75;;;;;;;;;;4997883;28;20034;-76
2023/04/11 10:03:57;;;;;;;15.13;13.68;;;;;;;;;;4996944;28;20035;-73
2023/04/11 10:06:37;;;;;;;14.45;13.00;;;;;;;;;;4995427;28;20030;-74
2023/04/11 10:09:10;;;;;;;14.73;13.23;;;;;;;;;;4995897;28;20013;-75
2023/04/11 10:11:35;;;;;;;11.63;10.52;;;;;;;;;;4999017;28;20049;-75
2023/04/11 10:14:00;;;;;;;16.60;14.85;;;;;;;;;;4993492;28;20038;-76
2023/04/11 10:16:27;;;;;;;19.25;17.35;;;;;;;;;;4998221;28;20061;-75
2023/04/11 10:18:52;;;;;;;18.98;16.92;;;;;;;;;;4996800;28;20076;-77
2023/04/11 10:21:41;;;;;;;17.75;15.85;;;;;;;;;;4995717;28;20023;-76
2023/04/11 10:24:22;;;;;;;14.73;13.23;;;;;;;;;;4984491;28;20030;-75
2023/04/11 10:26:51;;;;;;;17.08;15.32;;;;;;;;;;4995460;28;20489;-74
2023/04/11 10:32:06;;;;;;;14.25;12.93;;;;;;;;;;4997515;28;20100;-74
2023/04/11 10:34:31;;;;;;;15.43;13.90;;;;;;;;;;4992032;28;20044;-75
2023/04/11 10:37:02;;;;;;;11.55;10.45;;;;;;;;;;4994546;28;20026;-77
2023/04/11 10:40:00;;;;;;;13.98;12.70;;;;;;;;;;4998194;28;20405;-75
2023/04/11 10:42:30;;;;;;;14.63;13.10;;;;;;;;;;4912910;29;20143;-76
2023/04/11 10:45:14;;;;;;;15.65;14.07;;;;;;;;;;4924902;29;20051;-78
2023/04/11 10:47:40;;;;;;;13.07;11.90;;;;;;;;;;4914894;29;20138;-78
2023/04/11 10:50:25;;;;;;;16.95;15.15;;;;;;;;;;4912276;29;20058;-76
2023/04/11 10:52:57;;;;;;;24.15;20.70;;;;;;;;;;4923074;29;20106;-74
2023/04/11 10:55:23;;;;;;;19.67;17.55;;;;;;;;;;4924060;28;20062;-78
2023/04/11 10:58:07;;;;;;;19.58;17.60;;;;;;;;;;4925374;29;20043;-76
2023/04/11 11:00:50;;;;;;;15.93;14.48;;;;;;;;;;4924240;29;20042;-76
2023/04/11 11:03:17;;;;;;;17.30;15.65;;;;;;;;;;4923908;29;20036;-78
2023/04/11 11:05:43;;;;;;;16.48;14.98;;;;;;;;;;4923333;29;20052;-75
2023/04/11 11:08:08;;;;;;;14.55;13.25;;;;;;;;;;4910945;29;21696;-76
2023/04/11 11:10:37;;;;;;;14.80;13.60;;;;;;;;;;4912375;29;20047;-74
2023/04/11 11:13:03;;;;;;;18.60;16.80;;;;;;;;;;4912412;29;20048;-75
2023/04/11 11:15:29;;;;;;;18.77;16.92;;;;;;;;;;4912166;29;20043;-76
2023/04/11 11:17:54;;;;;;;14.05;12.75;;;;;;;;;;4942552;28;20037;-75
2023/04/11 11:20:19;;;;;;;14.80;13.40;;;;;;;;;;4988184;28;20080;-76
2023/04/11 11:23:01;;;;;;;16.35;14.85;;;;;;;;;;4986843;28;20445;-75
2023/04/11 11:25:26;;;;;;;22.45;19.73;;;;;;;;;;4982708;28;20036;-77
2023/04/11 11:28:01;;;;;;;17.70;15.90;;;;;;;;;;4984035;28;20349;-76
2023/04/11 11:30:27;;;;;;;19.55;17.65;;;;;;;;;;4978964;28;20503;-75
2023/04/11 11:32:52;;;;;;;17.70;16.00;;;;;;;;;;4984187;28;20037;-75
2023/04/11 11:35:17;;;;;;;14.48;12.98;;;;;;;;;;5007940;28;20049;-76
2023/04/11 11:37:43;;;;;;;15.45;14.05;;;;;;;;;;4982535;28;20030;-75
2023/04/11 11:40:12;;;;;;;16.42;14.82;;;;;;;;;;4984927;28;20457;-75
2023/04/11 11:42:38;;;;;;;17.40;15.60;;;;;;;;;;4982724;28;20033;-75
2023/04/11 11:45:16;;;;;;;14.85;13.45;;;;;;;;;;4983803;28;20121;-77
2023/04/11 11:47:45;;;;;;;16.53;14.93;;;;;;;;;;4984913;28;20060;-76
2023/04/11 11:50:22;;;;;;;19.90;17.88;;;;;;;;;;4984045;28;20025;-76
2023/04/11 11:52:47;;;;;;;19.08;17.17;;;;;;;;;;4984288;28;20021;-75
2023/04/11 11:55:19;;;;;;;20.83;18.65;;;;;;;;;;4984967;28;20353;-75
2023/04/11 11:57:45;;;;;;;17.45;15.77;;;;;;;;;;4982812;28;20030;-76
2023/04/11 12:00:10;;;;;;;17.00;15.50;;;;;;;;;;4983533;28;20026;-74
2023/04/11 12:02:36;;;;;;;18.17;16.52;;;;;;;;;;4983836;28;20033;-76
2023/04/11 12:05:04;;;;;;;16.75;15.23;;;;;;;;;;4983469;28;20025;-75
2023/04/11 12:07:32;;;;;;;18.25;16.23;;;;;;;;;;4984600;28;20109;-75
2023/04/11 12:09:58;;;;;;;18.58;16.58;;;;;;;;;;4984116;28;20160;-76
2023/04/11 12:12:30;;;;;;;15.50;14.05;;;;;;;;;;4983946;28;20034;-74
2023/04/11 12:14:55;;;;;;;17.98;16.27;;;;;;;;;;4984420;28;20084;-75
2023/04/11 12:17:21;;;;;;;17.70;15.90;;;;;;;;;;4983255;28;20042;-75
2023/04/11 12:19:46;;;;;;;22.25;19.95;;;;;;;;;;4984302;28;20026;-74
2023/04/11 12:22:11;;;;;;;16.30;14.80;;;;;;;;;;4983052;28;20103;-76
2023/04/11 12:24:37;;;;;;;18.73;16.88;;;;;;;;;;4983488;28;20430;-76
2023/04/11 12:27:03;;;;;;;18.70;16.88;;;;;;;;;;4983052;28;20445;-76
2023/04/11 12:29:29;;;;;;;13.82;12.43;;;;;;;;;;4984672;28;21419;-76
2023/04/11 12:31:54;;;;;;;12.30;11.20;;;;;;;;;;4981495;28;20116;-75
2023/04/11 12:34:19;;;;;;;13.02;11.82;;;;;;;;;;4983337;28;20117;-75
2023/04/11 12:36:45;;;;;;;11.15;10.07;;;;;;;;;;4984512;28;20018;-75
2023/04/11 12:39:10;;;;;;;12.45;11.25;;;;;;;;;;4982928;28;21258;-74
2023/04/11 12:41:35;;;;;;;14.48;12.98;;;;;;;;;;4985498;28;20099;-72
2023/04/11 12:44:02;;;;;;;12.38;11.18;;;;;;;;;;4984018;28;20073;-73
2023/04/11 12:46:28;;;;;;;12.80;11.50;;;;;;;;;;4983661;28;20051;-73
2023/04/11 12:48:53;;;;;;;16.50;14.52;;;;;;;;;;4982917;28;20176;-74
2023/04/11 12:51:18;;;;;;;20.73;14.05;;;;;;;;;;4981577;28;20076;-74
2023/04/11 12:53:43;;;;;;;13.93;12.63;;;;;;;;;;4981686;28;20022;-72
2023/04/11 12:56:09;;;;;;;14.68;13.18;;;;;;;;;;4983024;28;20026;-73
2023/04/11 12:58:34;;;;;;;14.35;12.95;;;;;;;;;;4982988;28;21154;-74
2023/04/11 13:01:00;;;;;;;17.88;14.43;;;;;;;;;;4981487;28;20033;-73
2023/04/11 13:03:25;;;;;;;18.10;16.27;;;;;;;;;;4982074;28;20038;-72
2023/04/11 13:05:51;;;;;;;17.02;15.32;;;;;;;;;;4982795;28;21237;-74
2023/04/11 13:08:16;;;;;;;17.00;15.30;;;;;;;;;;4991137;28;20037;-73
2023/04/11 13:10:41;;;;;;;14.45;12.95;;;;;;;;;;4991557;28;20059;-74
2023/04/11 13:13:07;;;;;;;16.50;14.70;;;;;;;;;;4992950;28;20422;-73
2023/04/11 13:15:32;;;;;;;21.98;17.95;;;;;;;;;;4995989;28;20104;-74
2023/04/11 13:17:57;;;;;;;23.58;18.95;;;;;;;;;;4985453;28;20034;-75
2023/04/11 13:20:23;;;;;;;19.23;16.98;;;;;;;;;;4989075;28;20026;-73
2023/04/11 13:22:48;;;;;;;15.40;13.80;;;;;;;;;;4988129;28;20156;-74
2023/04/11 13:25:13;;;;;;;13.88;12.55;;;;;;;;;;4984381;28;20661;-74
2023/04/11 13:27:39;;;;;;;14.73;12.82;;;;;;;;;;5005883;28;20048;-74
2023/04/11 13:30:05;;;;;;;17.65;15.40;;;;;;;;;;4999212;28;20057;-70
2023/04/11 13:32:31;;;;;;;18.73;16.58;;;;;;;;;;5000285;28;20084;-77
2023/04/11 13:34:56;;;;;;;19.13;17.20;;;;;;;;;;4994177;28;20361;-75
2023/04/11 13:37:21;;;;;;;16.23;14.52;;;;;;;;;;5002104;28;20030;-76
2023/04/11 13:39:47;;;;;;;15.60;13.93;;;;;;;;;;5000143;28;20117;-76
2023/04/11 13:42:12;;;;;;;14.35;12.68;;;;;;;;;;4999218;28;20036;-76
2023/04/11 13:44:37;;;;;;;19.63;17.35;;;;;;;;;;5001315;28;20487;-77
2023/04/11 13:47:03;;;;;;;13.35;12.02;;;;;;;;;;4999485;28;20054;-76
2023/04/11 13:49:28;;;;;;;12.07;10.98;;;;;;;;;;5000140;28;20030;-75
2023/04/11 13:51:54;;;;;;;13.15;11.85;;;;;;;;;;4999117;28;20077;-77
2023/04/11 13:54:19;;;;;;;15.02;13.48;;;;;;;;;;4988768;28;20033;-77
2023/04/11 13:56:44;;;;;;;14.52;13.13;;;;;;;;;;4987863;28;20116;-76
2023/04/11 13:59:10;;;;;;;17.00;14.05;;;;;;;;;;4982761;28;20041;-78
2023/04/11 14:01:36;;;;;;;15.57;13.93;;;;;;;;;;4990406;28;20076;-75
2023/04/11 14:04:01;;;;;;;15.65;14.07;;;;;;;;;;4988279;28;20345;-76
2023/04/11 14:06:27;;;;;;;16.02;13.88;;;;;;;;;;4990418;28;20029;-78
2023/04/11 14:08:52;;;;;;;15.88;14.38;;;;;;;;;;4989075;28;20105;-74
2023/04/11 14:11:17;;;;;;;17.35;15.65;;;;;;;;;;4990147;28;20037;-76
2023/04/11 14:13:43;;;;;;;15.57;14.07;;;;;;;;;;4987433;28;20033;-76
2023/04/11 14:16:08;;;;;;;24.88;22.20;;;;;;;;;;4988642;28;20484;-75